createdAt,value
2023-04-08T00:01:30.926Z,100811.84
2023-04-08T00:04:33.777Z,100810.53
2023-04-08T00:07:36.419Z,100802.91
2023-04-08T00:10:41.186Z,100811.59
2023-04-08T00:13:44.480Z,100807.47
2023-04-08T00:16:47.079Z,100802.59
2023-04-08T00:19:50.573Z,100812.84
2023-04-08T00:22:54.219Z,100811.47
2023-04-08T00:25:56.743Z,100822.19
2023-04-08T00:28:59.355Z,100809.84
2023-04-08T00:32:02.125Z,100812.22
2023-04-08T00:35:05.645Z,100808.72
2023-04-08T00:38:08.610Z,100807.34
2023-04-08T00:41:13.312Z,100809.34
2023-04-08T00:44:15.918Z,100812.09
2023-04-08T00:47:19.069Z,100810.50
2023-04-08T00:50:23.558Z,100810.78
2023-04-08T00:53:27.028Z,100808.34
2023-04-08T00:56:32.548Z,100817.22
2023-04-08T00:59:36.247Z,100817.44
2023-04-08T01:02:51.566Z,100814.91
2023-04-08T01:06:16.139Z,100815.25
2023-04-08T01:09:20.868Z,100816.31
2023-04-08T01:12:31.123Z,100806.16
2023-04-08T01:15:37.172Z,100815.50
2023-04-08T01:18:43.629Z,100815.41
2023-04-08T01:21:46.922Z,100820.41
2023-04-08T01:24:53.466Z,100815.03
2023-04-08T01:28:00.160Z,100818.34
2023-04-08T01:31:06.337Z,100816.03
2023-04-08T01:34:10.529Z,100817.66
2023-04-08T01:37:15.802Z,100813.91
2023-04-08T01:40:20.421Z,100816.97
2023-04-08T01:43:24.500Z,100807.16
2023-04-08T01:46:29.496Z,100812.34
2023-04-08T01:49:33.637Z,100809.00
2023-04-08T01:52:38.884Z,100808.66
2023-04-08T01:55:43.397Z,100812.66
2023-04-08T01:58:53.154Z,100811.84
2023-04-08T02:01:56.999Z,100808.78
2023-04-08T02:04:59.723Z,100810.41
2023-04-08T02:08:02.883Z,100809.84
2023-04-08T02:11:06.515Z,100809.34
2023-04-08T02:14:10.345Z,100812.28
2023-04-08T02:17:19.005Z,100808.78
2023-04-08T02:20:27.918Z,100812.28
2023-04-08T02:23:35.652Z,100812.53
2023-04-08T02:26:42.959Z,100802.59
2023-04-08T02:29:47.296Z,100801.59
2023-04-08T02:32:50.467Z,100808.41
2023-04-08T02:35:56.100Z,100799.03
2023-04-08T02:38:59.443Z,100805.41
2023-04-08T02:42:04.639Z,100811.34
2023-04-08T02:45:08.506Z,100803.91
2023-04-08T02:48:11.484Z,100806.59
2023-04-08T02:51:13.966Z,100809.72
2023-04-08T02:54:18.167Z,100806.97
2023-04-08T02:57:21.150Z,100804.16
2023-04-08T03:00:26.207Z,100808.47
2023-04-08T03:03:30.377Z,100806.66
2023-04-08T03:06:34.142Z,100804.97
2023-04-08T03:09:36.910Z,100807.22
2023-04-08T03:12:39.723Z,100807.22
2023-04-08T03:15:43.400Z,100812.28
2023-04-08T03:18:45.914Z,100819.91
2023-04-08T03:21:48.639Z,100815.44
2023-04-08T03:24:51.405Z,100816.59
2023-04-08T03:27:55.376Z,100827.34
2023-04-08T03:31:00.827Z,100820.25
2023-04-08T03:34:03.608Z,100826.56
2023-04-08T03:37:06.374Z,100828.84
2023-04-08T03:40:11.016Z,100830.00
2023-04-08T03:43:14.888Z,100827.94
2023-04-08T03:46:17.484Z,100832.13
2023-04-08T03:49:20.784Z,100829.81
2023-04-08T03:52:25.284Z,100826.63
2023-04-08T03:55:28.389Z,100830.13
2023-04-08T03:58:31.986Z,100845.06
2023-04-08T04:01:34.770Z,100850.13
2023-04-08T04:04:37.413Z,100844.41
2023-04-08T04:07:40.007Z,100846.72
2023-04-08T04:10:43.245Z,100851.19
2023-04-08T04:13:45.769Z,100852.97
2023-04-08T04:16:48.327Z,100858.47
2023-04-08T04:19:52.852Z,100854.78
2023-04-08T04:22:56.353Z,100853.38
2023-04-08T04:25:59.927Z,100853.06
2023-04-08T04:29:03.272Z,100862.03
2023-04-08T04:32:06.797Z,100863.66
2023-04-08T04:35:10.440Z,100860.69
2023-04-08T04:38:13.760Z,100856.88
2023-04-08T04:41:17.479Z,100858.22
2023-04-08T04:44:20.052Z,100866.59
2023-04-08T04:47:23.510Z,100868.88
2023-04-08T04:50:26.847Z,100867.81
2023-04-08T04:53:30.733Z,100868.66
2023-04-08T04:56:33.314Z,100863.66
2023-04-08T04:59:35.878Z,100876.59
2023-04-08T05:02:38.809Z,100874.41
2023-04-08T05:05:41.940Z,100871.72
2023-04-08T05:08:45.432Z,100873.09
2023-04-08T05:11:48.151Z,100880.66
2023-04-08T05:14:50.712Z,100872.28
2023-04-08T05:17:53.265Z,100889.91
2023-04-08T05:20:55.983Z,100884.44
2023-04-08T05:23:58.753Z,100881.03
2023-04-08T05:27:02.275Z,100889.72
2023-04-08T05:30:05.443Z,100899.94
2023-04-08T05:33:09.808Z,100896.22
2023-04-08T05:36:14.042Z,100894.97
2023-04-08T05:39:16.775Z,100895.38
2023-04-08T05:42:20.316Z,100898.75
2023-04-08T05:45:22.990Z,100899.75
2023-04-08T05:48:26.914Z,100905.75
2023-04-08T05:51:29.554Z,100904.78
2023-04-08T05:54:32.107Z,100910.41
2023-04-08T05:57:34.623Z,100906.41
2023-04-08T06:00:37.276Z,100913.50
2023-04-08T06:03:40.641Z,100903.34
2023-04-08T06:06:44.204Z,100913.25
2023-04-08T06:09:47.289Z,100918.31
2023-04-08T06:12:49.804Z,100917.34
2023-04-08T06:15:52.897Z,100916.63
2023-04-08T06:18:55.952Z,100918.75
2023-04-08T06:21:59.127Z,100919.97
2023-04-08T06:25:02.029Z,100920.94
2023-04-08T06:28:04.822Z,100928.44
2023-04-08T06:31:11.999Z,100924.00
2023-04-08T06:34:15.464Z,100931.72
2023-04-08T06:37:18.095Z,100936.69
2023-04-08T06:40:21.419Z,100929.56
2023-04-08T06:43:25.016Z,100933.66
2023-04-08T06:46:27.812Z,100944.47
2023-04-08T06:49:30.895Z,100942.56
2023-04-08T06:52:33.717Z,100943.28
2023-04-08T06:55:36.838Z,100943.25
2023-04-08T06:58:40.486Z,100946.94
2023-04-08T07:01:44.094Z,100948.66
2023-04-08T07:04:47.376Z,100949.13
2023-04-08T07:07:49.907Z,100952.00
2023-04-08T07:10:54.041Z,100953.88
2023-04-08T07:13:57.178Z,100953.78
2023-04-08T07:16:59.787Z,100953.84
2023-04-08T07:20:02.454Z,100959.34
2023-04-08T07:23:05.332Z,100963.78
2023-04-08T07:26:09.483Z,100963.69
2023-04-08T07:29:13.358Z,100974.59
2023-04-08T07:32:16.312Z,100977.47
2023-04-08T07:35:24.655Z,100977.91
2023-04-08T07:38:28.170Z,100973.16
2023-04-08T07:41:31.540Z,100978.72
2023-04-08T07:44:34.117Z,100993.78
2023-04-08T07:47:37.568Z,100991.06
2023-04-08T07:51:09.068Z,100996.31
2023-04-08T07:54:03.428Z,100999.13
2023-04-08T07:57:06.278Z,100998.44
2023-04-08T08:00:09.360Z,101001.94
2023-04-08T08:03:18.320Z,101009.09
2023-04-08T08:06:22.120Z,101013.75
2023-04-08T08:09:25.683Z,101011.22
2023-04-08T08:12:28.913Z,101011.91
2023-04-08T08:15:32.663Z,101003.69
2023-04-08T08:18:35.524Z,101007.00
2023-04-08T08:21:39.450Z,101008.72
2023-04-08T08:24:42.739Z,101011.72
2023-04-08T08:27:45.964Z,101012.09
2023-04-08T08:30:49.544Z,101013.25
2023-04-08T08:33:52.339Z,101021.22
2023-04-08T08:36:55.908Z,101020.84
2023-04-08T08:39:58.498Z,101022.81
2023-04-08T08:43:01.531Z,101025.06
2023-04-08T08:46:04.239Z,101026.63
2023-04-08T08:49:07.511Z,101026.78
2023-04-08T08:52:10.290Z,101031.63
2023-04-08T08:55:32.621Z,101036.41
2023-04-08T08:58:35.984Z,101034.47
2023-04-08T09:01:41.488Z,101041.41
2023-04-08T09:04:56.898Z,101040.03
2023-04-08T09:07:59.517Z,101045.88
2023-04-08T09:11:18.069Z,101046.19
2023-04-08T09:14:25.773Z,101050.75
2023-04-08T09:17:35.780Z,101056.38
2023-04-08T09:20:52.584Z,101055.63
2023-04-08T09:23:55.821Z,101057.56
2023-04-08T09:26:59.242Z,101062.59
2023-04-08T09:30:16.501Z,101064.34
2023-04-08T09:33:19.174Z,101068.28
2023-04-08T09:36:22.900Z,101076.06
2023-04-08T09:39:25.468Z,101070.44
2023-04-08T09:42:28.730Z,101071.84
2023-04-08T09:45:34.524Z,101066.56
2023-04-08T09:48:42.969Z,101072.44
2023-04-08T09:51:53.406Z,101072.25
2023-04-08T09:55:01.954Z,101074.22
2023-04-08T09:58:16.318Z,101077.13
2023-04-08T10:01:26.973Z,101080.28
2023-04-08T10:04:36.236Z,101074.00
2023-04-08T10:07:39.600Z,101080.88
2023-04-08T10:10:45.603Z,101083.63
2023-04-08T10:13:50.191Z,101079.13
2023-04-08T10:17:36.659Z,101088.66
2023-04-08T10:20:43.938Z,101082.97
2023-04-08T10:23:59.430Z,101078.41
2023-04-08T10:27:04.465Z,101065.16
2023-04-08T10:30:31.728Z,101077.91
2023-04-08T10:33:35.648Z,101079.09
2023-04-08T10:36:40.193Z,101072.31
2023-04-08T10:39:49.470Z,101076.13
2023-04-08T10:42:56.044Z,101071.28
2023-04-08T10:45:59.183Z,101079.56
2023-04-08T10:49:01.946Z,101074.94
2023-04-08T10:52:09.494Z,101080.47
2023-04-08T10:55:12.274Z,101079.22
2023-04-08T10:58:16.958Z,101078.91
2023-04-08T11:01:20.312Z,101079.88
2023-04-08T11:04:23.764Z,101079.47
2023-04-08T11:07:27.231Z,101084.88
2023-04-08T11:10:37.678Z,101079.28
2023-04-08T11:13:48.713Z,101077.75
2023-04-08T11:16:54.128Z,101077.59
2023-04-08T11:20:02.356Z,101071.22
2023-04-08T11:23:05.035Z,101077.53
2023-04-08T11:26:08.460Z,101079.56
2023-04-08T11:29:15.258Z,101076.28
2023-04-08T11:32:18.996Z,101074.25
2023-04-08T11:35:21.827Z,101080.25
2023-04-08T11:38:25.028Z,101084.59
2023-04-08T11:41:37.892Z,101079.59
2023-04-08T11:44:40.398Z,101086.47
2023-04-08T11:47:44.044Z,101081.28
2023-04-08T11:50:47.863Z,101083.63
2023-04-08T11:53:54.657Z,101079.03
2023-04-08T11:56:59.427Z,101075.91
2023-04-08T12:00:02.112Z,101081.44
2023-04-08T12:03:15.246Z,101082.34
2023-04-08T12:06:18.014Z,101082.41
2023-04-08T12:09:20.515Z,101078.13
2023-04-08T12:12:23.247Z,101079.88
2023-04-08T12:15:26.931Z,101072.97
2023-04-08T12:18:32.690Z,101073.44
2023-04-08T12:21:35.314Z,101078.06
2023-04-08T12:24:37.884Z,101074.88
2023-04-08T12:27:40.641Z,101075.50
2023-04-08T12:30:43.408Z,101063.63
2023-04-08T12:33:46.002Z,101068.13
2023-04-08T12:36:49.934Z,101066.97
2023-04-08T12:39:52.550Z,101070.00
2023-04-08T12:42:55.318Z,101067.75
2023-04-08T12:45:58.883Z,101072.81
2023-04-08T12:49:04.792Z,101067.47
2023-04-08T12:52:08.572Z,101064.88
2023-04-08T12:55:11.823Z,101072.53
2023-04-08T12:58:16.894Z,101067.56
2023-04-08T13:01:19.663Z,101069.06
2023-04-08T13:04:22.327Z,101069.25
2023-04-08T13:07:25.029Z,101073.97
2023-04-08T13:10:28.079Z,101073.94
2023-04-08T13:13:30.752Z,101065.19
2023-04-08T13:16:33.881Z,101073.50
2023-04-08T13:19:36.756Z,101068.78
2023-04-08T13:22:41.458Z,101060.28
2023-04-08T13:25:48.366Z,101057.34
2023-04-08T13:28:57.307Z,101057.41
2023-04-08T13:32:01.693Z,101055.09
2023-04-08T13:35:04.844Z,101061.28
2023-04-08T13:38:07.481Z,101056.78
2023-04-08T13:41:10.389Z,101055.69
2023-04-08T13:44:13.013Z,101051.53
2023-04-08T13:47:16.350Z,101054.00
2023-04-08T13:50:19.971Z,101060.16
2023-04-08T13:53:22.595Z,101060.19
2023-04-08T13:56:25.565Z,101058.94
2023-04-08T13:59:28.983Z,101048.56
2023-04-08T14:02:32.194Z,101051.81
2023-04-08T14:05:34.881Z,101063.28
2023-04-08T14:08:37.618Z,101052.66
2023-04-08T14:11:40.765Z,101061.88
2023-04-08T14:14:43.308Z,101061.00
2023-04-08T14:17:45.932Z,101061.13
2023-04-08T14:20:49.685Z,101057.88
2023-04-08T14:23:53.424Z,101062.81
2023-04-08T14:26:56.422Z,101061.72
2023-04-08T14:29:59.108Z,101061.03
2023-04-08T14:33:01.905Z,101064.75
2023-04-08T14:36:04.759Z,101066.81
2023-04-08T14:39:07.377Z,101057.59
2023-04-08T14:42:10.152Z,101060.13
2023-04-08T14:45:13.337Z,101060.06
2023-04-08T14:48:16.072Z,101055.59
2023-04-08T14:51:19.026Z,101056.22
2023-04-08T14:54:22.506Z,101052.59
2023-04-08T14:57:25.651Z,101059.25
2023-04-08T15:00:28.374Z,101059.47
2023-04-08T15:03:31.669Z,101060.19
2023-04-08T15:06:34.887Z,101058.22
2023-04-08T15:09:38.167Z,101059.53
2023-04-08T15:12:41.411Z,101057.97
2023-04-08T15:15:43.942Z,101058.75
2023-04-08T15:18:46.707Z,101053.88
2023-04-08T15:21:49.821Z,101057.97
2023-04-08T15:24:53.595Z,101055.50
2023-04-08T15:27:57.104Z,101060.38
2023-04-08T15:31:01.736Z,101060.84
2023-04-08T15:34:04.966Z,101054.38
2023-04-08T15:37:07.716Z,101062.59
2023-04-08T15:40:11.829Z,101067.03
2023-04-08T15:43:14.535Z,101066.88
2023-04-08T15:46:20.964Z,101074.53
2023-04-08T15:49:23.920Z,101071.88
2023-04-08T15:52:27.124Z,101077.50
2023-04-08T15:55:30.674Z,101086.50
2023-04-08T15:58:33.290Z,101087.00
2023-04-08T16:01:36.225Z,101082.81
2023-04-08T16:04:40.147Z,101087.91
2023-04-08T16:07:42.923Z,101085.28
2023-04-08T16:10:47.155Z,101090.97
2023-04-08T16:13:49.993Z,101091.44
2023-04-08T16:16:52.618Z,101105.31
2023-04-08T16:19:55.360Z,101103.25
2023-04-08T16:22:59.434Z,101106.47
2023-04-08T16:26:02.365Z,101107.75
2023-04-08T16:29:04.991Z,101106.25
2023-04-08T16:32:09.022Z,101108.16
2023-04-08T16:35:13.188Z,101120.16
2023-04-08T16:38:16.596Z,101120.91
2023-04-08T16:41:19.280Z,101119.78
2023-04-08T16:44:21.850Z,101121.00
2023-04-08T16:47:24.568Z,101119.69
2023-04-08T16:50:31.290Z,101120.16
2023-04-08T16:53:34.573Z,101123.16
2023-04-08T16:56:37.279Z,101129.22
2023-04-08T16:59:39.866Z,101135.69
2023-04-08T17:02:42.614Z,101131.34
2023-04-08T17:05:46.030Z,101136.59
2023-04-08T17:08:49.072Z,101135.78
2023-04-08T17:11:51.784Z,101134.72
2023-04-08T17:14:54.457Z,101143.97
2023-04-08T17:17:57.286Z,101139.84
2023-04-08T17:20:59.855Z,101150.25
2023-04-08T17:24:03.154Z,101150.19
2023-04-08T17:27:06.088Z,101161.19
2023-04-08T17:30:11.290Z,101153.09
2023-04-08T17:33:15.541Z,101159.88
2023-04-08T17:36:19.305Z,101161.56
2023-04-08T17:39:22.815Z,101162.56
2023-04-08T17:42:25.556Z,101171.19
2023-04-08T17:45:28.525Z,101172.53
2023-04-08T17:48:31.677Z,101176.09
2023-04-08T17:51:34.475Z,101172.22
2023-04-08T17:54:37.001Z,101180.81
2023-04-08T17:57:39.523Z,101176.59
2023-04-08T18:00:43.219Z,101176.91
2023-04-08T18:03:45.908Z,101176.59
2023-04-08T18:06:48.472Z,101180.69
2023-04-08T18:09:51.916Z,101187.06
2023-04-08T18:13:10.236Z,101186.09
2023-04-08T18:16:18.294Z,101187.53
2023-04-08T18:19:21.173Z,101192.47
2023-04-08T18:22:23.873Z,101194.94
2023-04-08T18:25:27.493Z,101202.56
2023-04-08T18:28:30.342Z,101193.16
2023-04-08T18:31:33.224Z,101197.13
2023-04-08T18:34:36.217Z,101204.94
2023-04-08T18:37:38.840Z,101211.09
2023-04-08T18:40:42.189Z,101217.59
2023-04-08T18:43:44.738Z,101214.75
2023-04-08T18:46:47.409Z,101213.19
2023-04-08T18:49:50.143Z,101217.03
2023-04-08T18:52:53.126Z,101219.78
2023-04-08T18:55:56.321Z,101214.53
2023-04-08T18:58:59.416Z,101222.69
2023-04-08T19:02:02.227Z,101219.09
2023-04-08T19:05:05.233Z,101224.00
2023-04-08T19:08:08.067Z,101219.84
2023-04-08T19:11:10.800Z,101220.91
2023-04-08T19:14:15.015Z,101225.50
2023-04-08T19:17:17.812Z,101220.09
2023-04-08T19:20:21.202Z,101225.16
2023-04-08T19:23:23.777Z,101221.16
2023-04-08T19:26:27.424Z,101227.88
2023-04-08T19:29:31.364Z,101228.44
2023-04-08T19:32:36.471Z,101230.19
2023-04-08T19:35:39.213Z,101230.88
2023-04-08T19:38:41.843Z,101229.25
2023-04-08T19:41:44.421Z,101238.53
2023-04-08T19:44:49.779Z,101243.50
2023-04-08T19:47:52.378Z,101237.31
2023-04-08T19:50:55.117Z,101243.66
2023-04-08T19:53:57.874Z,101244.00
2023-04-08T19:57:00.768Z,101236.56
2023-04-08T20:00:04.717Z,101237.06
2023-04-08T20:03:10.123Z,101244.41
2023-04-08T20:06:12.991Z,101241.47
2023-04-08T20:09:16.366Z,101245.16
2023-04-08T20:12:19.866Z,101241.28
2023-04-08T20:15:25.271Z,101247.44
2023-04-08T20:18:29.445Z,101248.03
2023-04-08T20:21:32.668Z,101249.47
2023-04-08T20:24:35.708Z,101241.66
2023-04-08T20:27:38.234Z,101245.47
2023-04-08T20:30:40.916Z,101233.97
2023-04-08T20:33:45.516Z,101243.03
2023-04-08T20:36:48.851Z,101236.91
2023-04-08T20:39:51.400Z,101243.44
2023-04-08T20:42:53.957Z,101236.00
2023-04-08T20:45:57.364Z,101244.53
2023-04-08T20:48:59.913Z,101247.22
2023-04-08T20:52:03.239Z,101245.22
2023-04-08T20:55:07.415Z,101246.72
2023-04-08T20:58:11.128Z,101248.09
2023-04-08T21:01:13.783Z,101252.00
2023-04-08T21:04:16.795Z,101258.78
2023-04-08T21:07:19.462Z,101253.91
2023-04-08T21:10:22.229Z,101253.41
2023-04-08T21:13:24.974Z,101255.34
2023-04-08T21:16:29.226Z,101256.84
2023-04-08T21:19:31.954Z,101256.59
2023-04-08T21:22:34.909Z,101256.25
2023-04-08T21:25:37.589Z,101261.63
2023-04-08T21:28:40.785Z,101260.25
2023-04-08T21:31:43.635Z,101264.34
2023-04-08T21:34:46.497Z,101263.53
2023-04-08T21:37:49.179Z,101262.53
2023-04-08T21:40:52.406Z,101260.66
2023-04-08T21:43:55.967Z,101260.66
2023-04-08T21:47:00.474Z,101258.78
2023-04-08T21:50:04.948Z,101264.19
2023-04-08T21:53:08.952Z,101263.34
2023-04-08T21:56:11.817Z,101260.34
2023-04-08T21:59:14.607Z,101257.41
2023-04-08T22:02:17.381Z,101257.88
2023-04-08T22:05:20.396Z,101265.47
2023-04-08T22:08:23.953Z,101260.44
2023-04-08T22:11:26.607Z,101259.28
2023-04-08T22:14:29.654Z,101267.13
2023-04-08T22:17:33.068Z,101261.75
2023-04-08T22:20:36.580Z,101258.38
2023-04-08T22:23:39.262Z,101252.06
2023-04-08T22:26:41.840Z,101260.16
2023-04-08T22:29:44.530Z,101258.03
2023-04-08T22:32:47.604Z,101266.38
2023-04-08T22:35:50.472Z,101264.31
2023-04-08T22:38:53.894Z,101259.19
2023-04-08T22:41:57.539Z,101266.13
2023-04-08T22:45:00.184Z,101265.81
2023-04-08T22:48:03.716Z,101255.59
2023-04-08T22:51:07.629Z,101254.88
2023-04-08T22:54:10.408Z,101253.91
2023-04-08T22:57:13.237Z,101262.72
2023-04-08T23:00:16.076Z,101260.47
2023-04-08T23:03:20.134Z,101263.84
2023-04-08T23:06:23.744Z,101267.44
2023-04-08T23:09:27.410Z,101264.91
2023-04-08T23:12:30.052Z,101270.28
2023-04-08T23:15:32.862Z,101269.53
2023-04-08T23:18:35.766Z,101270.84
2023-04-08T23:21:38.361Z,101269.44
2023-04-08T23:24:40.976Z,101266.50
2023-04-08T23:27:43.735Z,101266.50
2023-04-08T23:30:46.674Z,101266.44
2023-04-08T23:33:49.913Z,101268.22
2023-04-08T23:36:52.535Z,101261.66
2023-04-08T23:39:56.319Z,101261.06
2023-04-08T23:42:59.000Z,101256.97
2023-04-08T23:46:01.926Z,101261.53
2023-04-08T23:49:04.472Z,101256.00
2023-04-08T23:52:07.680Z,101249.13
2023-04-08T23:55:10.554Z,101252.19
2023-04-08T23:58:13.651Z,101256.59
